Hamilton Island, Queensland

11:16 PM EST on July 30, 2014 (GMT +1000)
Hamilton Island (YBHM) Elev 16 ft | 20.36 °S, 148.95 °E | Change Station

Current weather conditions updated 16 minutes ago

Clear
Clear
68 °F
Feels Like 68 °F
N
14
Wind Variable Wind from ESE

Tomorrow is forecast to be nearly the same temperature as today. Showers.

Today
High -- | Low -- °F
--% Chance of Precip.
Yesterday
High -- | Low -- °F
Precip. -- in
6:35 AM 5:45 PM
Waxing Crescent, 11% visible
Pressure 30.12 in
Visibility 6.2 miles
Clouds
Dew Point 63 °F
Humidity 83%
Rainfall 0.00 in
Snow Depth Not available.
UV Not available.
Pollen Not available.
Air Quality Not available.
Flu Activity Not available.
METAR YBHM 301300Z AUTO 11012KT 9999 // NCD 20/17 Q1020

More Conditions Fewer Conditions

Pressure 30.12 in
Visibility 6.2 miles
Clouds
Dew Point 63 °F
Humidity 83%
Rainfall 0.00 in
Snow Depth Not available.
UV Not available.
Pollen Not available.
Air Quality Not available.
Flu Activity Not available.
METAR YBHM 301300Z AUTO 11012KT 9999 // NCD 20/17 Q1020

More Conditions Fewer Conditions

10-Day Weather Forecast

Almanac

Astronomy

Jul. 30, 2014 Rise Set
Actual Time 6:35 AM EST 5:45 PM EST
Civil Twilight 6:12 AM EST 6:09 PM EST
Nautical Twilight 5:45 AM EST 6:35 PM EST
Astronomical Twilight 5:19 AM EST 7:02 PM EST
Moon 8:20 AM EST 8:28 PM EST
Length of Visible Light 11h 56m
Length of Day
11h 10m
Tomorrow will be 0m 48s longer.
Waxing Crescent, 11% of the Moon is Illuminated
Today
Waxing Crescent
Aug 3
First Quarter
Aug 10
Full
Aug 17
Last Quarter
Aug 25
New

Yesterday's Extremes

Country Highs Country Lows

Community

WunderPhotos

Upload Photos

1,739,076 photos uploaded!

Nearby

Snow Depth

Not available.

Earthquake Activity

City Distance Mag. Time & Date
No recent earthquake activity has been reported nearby.
Minimum magnitude displayed is 2.5.

Coastal Water Temperatures

Place Temperature
No Stations Reporting

Nearby Weather Stations

Station Location Temp. Dew Point Humidity Wind Precip. Elev Updated Type
Hamilton Island, Queensland 68.5 °F 62 °F 80% ESE  at  13.7 mph - / hr 358 ft 11:09 PM EST Normal
Airlie Beach, Queensland, Woodwark 59.8 °F 58 °F 94% NNE  at  2.0 mph 0.00 in / hr 131 ft 11:16 PM EST Rapid Fire
Mount Julian, Whitsundays 59.9 °F 59 °F 95% NNE  at  0.0 mph 0.00 in / hr 168 ft 11:15 PM EST Normal
Proserpine Mill, Proserpine 59.3 °F 57 °F 91% East  at  1.0 mph 0.00 in / hr 43 ft 11:16 PM EST Normal

Show More Stations Show Fewer Stations